createdAt,value
2022-09-04T00:00:15.583Z,99251.94
2022-09-04T00:02:50.894Z,99257.34
2022-09-04T00:05:47.980Z,99257.09
2022-09-04T00:08:49.017Z,99254.31
2022-09-04T00:11:33.153Z,99253.81
2022-09-04T00:14:02.417Z,99260.94
2022-09-04T00:16:58.488Z,99256.84
2022-09-04T00:19:34.528Z,99258.19
2022-09-04T00:22:05.987Z,99260.44
2022-09-04T00:24:38.422Z,99260.16
2022-09-04T00:27:14.332Z,99254.47
2022-09-04T00:29:49.010Z,99256.56
2022-09-04T00:32:42.256Z,99259.91
2022-09-04T00:35:20.890Z,99267.56
2022-09-04T00:38:24.542Z,99258.38
2022-09-04T00:40:59.493Z,99259.88
2022-09-04T00:44:03.939Z,99261.88
2022-09-04T00:46:54.927Z,99261.34
2022-09-04T00:49:49.574Z,99266.59
2022-09-04T00:52:36.867Z,99267.22
2022-09-04T00:55:22.441Z,99271.78
2022-09-04T00:57:59.920Z,99270.63
2022-09-04T01:00:28.930Z,99270.97
2022-09-04T01:03:07.808Z,99271.09
2022-09-04T01:06:10.048Z,99272.34
2022-09-04T01:09:01.489Z,99275.75
2022-09-04T01:11:50.709Z,99277.94
2022-09-04T01:15:04.169Z,99280.09
2022-09-04T01:17:40.578Z,99282.31
2022-09-04T01:20:21.589Z,99276.69
2022-09-04T01:22:53.918Z,99282.72
2022-09-04T01:25:53.172Z,99284.22
2022-09-04T01:28:43.942Z,99286.19
2022-09-04T01:31:33.680Z,99279.28
2022-09-04T01:34:37.932Z,99279.59
2022-09-04T01:37:42.217Z,99275.44
2022-09-04T01:40:21.087Z,99286.69
2022-09-04T01:42:59.650Z,99278.88
2022-09-04T01:46:19.138Z,99281.38
2022-09-04T01:49:03.500Z,99284.72
2022-09-04T01:51:51.100Z,99281.28
2022-09-04T01:54:17.585Z,99282.97
2022-09-04T01:56:52.209Z,99290.38
2022-09-04T01:59:35.388Z,99298.38
2022-09-04T02:02:19.437Z,99299.63
2022-09-04T02:05:15.162Z,99287.75
2022-09-04T02:07:44.738Z,99294.59
2022-09-04T02:10:24.433Z,99294.13
2022-09-04T02:13:07.348Z,99291.44
2022-09-04T02:15:58.486Z,99291.47
2022-09-04T02:18:44.382Z,99291.47
2022-09-04T02:21:31.592Z,99295.00
2022-09-04T02:24:23.791Z,99287.38
2022-09-04T02:27:04.315Z,99292.97
2022-09-04T02:30:02.966Z,99288.41
2022-09-04T02:32:42.764Z,99295.31
2022-09-04T02:35:18.186Z,99292.16
2022-09-04T02:37:56.373Z,99294.03
2022-09-04T02:40:41.656Z,99300.94
2022-09-04T02:43:35.514Z,99306.22
2022-09-04T02:46:26.395Z,99310.44
2022-09-04T02:49:13.288Z,99309.25
2022-09-04T02:51:53.128Z,99316.25
2022-09-04T02:54:42.597Z,99319.00
2022-09-04T02:57:30.938Z,99312.06
2022-09-04T03:00:21.071Z,99313.59
2022-09-04T03:02:54.393Z,99312.22
2022-09-04T03:05:35.717Z,99315.94
2022-09-04T03:08:06.190Z,99315.63
2022-09-04T03:10:45.746Z,99313.09
2022-09-04T03:14:06.622Z,99322.75
2022-09-04T03:17:02.724Z,99322.75
2022-09-04T03:19:42.591Z,99318.00
2022-09-04T03:22:33.345Z,99318.88
2022-09-04T03:25:07.446Z,99322.13
2022-09-04T03:27:35.199Z,99329.53
2022-09-04T03:30:13.288Z,99320.59
2022-09-04T03:33:03.742Z,99324.91
2022-09-04T03:36:07.454Z,99321.88
2022-09-04T03:39:02.458Z,99325.78
2022-09-04T03:41:41.070Z,99329.81
2022-09-04T03:44:40.075Z,99323.34
2022-09-04T03:47:25.980Z,99318.38
2022-09-04T03:50:17.396Z,99323.66
2022-09-04T03:52:56.153Z,99323.84
2022-09-04T03:55:45.608Z,99328.59
2022-09-04T03:59:03.380Z,99336.03
2022-09-04T04:01:54.192Z,99340.22
2022-09-04T04:04:39.186Z,99346.34
2022-09-04T04:07:42.837Z,99345.88
2022-09-04T04:10:33.351Z,99344.38
2022-09-04T04:13:08.457Z,99347.63
2022-09-04T04:15:59.812Z,99350.81
2022-09-04T04:18:39.075Z,99346.94
2022-09-04T04:21:35.329Z,99346.94
2022-09-04T04:24:28.960Z,99343.41
2022-09-04T04:27:07.441Z,99343.06
2022-09-04T04:29:54.876Z,99349.28
2022-09-04T04:32:55.942Z,99349.81
2022-09-04T04:35:41.417Z,99353.72
2022-09-04T04:39:02.166Z,99361.47
2022-09-04T04:42:05.690Z,99356.09
2022-09-04T04:45:19.572Z,99363.50
2022-09-04T04:48:08.014Z,99360.31
2022-09-04T04:50:46.207Z,99361.28
2022-09-04T04:53:24.848Z,99359.28
2022-09-04T04:56:27.584Z,99369.94
2022-09-04T04:59:35.214Z,99370.94
2022-09-04T05:02:16.725Z,99373.28
2022-09-04T05:05:13.499Z,99381.38
2022-09-04T05:08:07.564Z,99377.84
2022-09-04T05:10:42.523Z,99387.00
2022-09-04T05:13:34.131Z,99386.47
2022-09-04T05:16:19.381Z,99385.78
2022-09-04T05:19:12.594Z,99393.91
2022-09-04T05:22:04.164Z,99399.81
2022-09-04T05:24:55.919Z,99405.72
2022-09-04T05:27:22.487Z,99405.22
2022-09-04T05:30:00.701Z,99409.44
2022-09-04T05:32:58.443Z,99407.94
2022-09-04T05:35:38.183Z,99415.03
2022-09-04T05:38:16.223Z,99414.50
2022-09-04T05:41:08.894Z,99419.56
2022-09-04T05:44:00.459Z,99421.06
2022-09-04T05:46:42.210Z,99421.22
2022-09-04T05:49:42.317Z,99427.16
2022-09-04T05:52:47.346Z,99434.59
2022-09-04T05:55:26.002Z,99433.59
2022-09-04T05:58:23.820Z,99448.75
2022-09-04T06:01:28.156Z,99444.50
2022-09-04T06:04:21.998Z,99456.31
2022-09-04T06:07:02.096Z,99455.09
2022-09-04T06:09:44.058Z,99455.56
2022-09-04T06:12:27.795Z,99464.88
2022-09-04T06:15:21.358Z,99467.75
2022-09-04T06:18:02.925Z,99467.34
2022-09-04T06:20:38.445Z,99469.34
2022-09-04T06:23:29.731Z,99478.06
2022-09-04T06:26:14.999Z,99471.97
2022-09-04T06:28:48.293Z,99477.34
2022-09-04T06:31:20.761Z,99484.25
2022-09-04T06:33:59.506Z,99490.13
2022-09-04T06:37:03.780Z,99487.72
2022-09-04T06:40:29.047Z,99493.00
2022-09-04T06:43:14.969Z,99498.75
2022-09-04T06:46:02.141Z,99502.09
2022-09-04T06:49:00.350Z,99504.56
2022-09-04T06:51:52.348Z,99498.22
2022-09-04T06:54:32.170Z,99500.03
2022-09-04T06:57:19.864Z,99511.13
2022-09-04T07:00:10.657Z,99502.66
2022-09-04T07:02:40.277Z,99515.56
2022-09-04T07:05:43.125Z,99510.28
2022-09-04T07:08:34.478Z,99511.97
2022-09-04T07:11:24.418Z,99522.19
2022-09-04T07:14:16.377Z,99517.88
2022-09-04T07:16:51.007Z,99524.44
2022-09-04T07:19:39.541Z,99512.63
2022-09-04T07:22:31.425Z,99515.38
2022-09-04T07:25:07.301Z,99517.03
2022-09-04T07:27:51.149Z,99510.81
2022-09-04T07:30:20.032Z,99509.69
2022-09-04T07:32:57.159Z,99520.00
2022-09-04T07:35:42.505Z,99518.53
2022-09-04T07:38:22.639Z,99524.19
2022-09-04T07:41:01.889Z,99524.00
2022-09-04T07:43:54.945Z,99526.44
2022-09-04T07:46:30.348Z,99526.38
2022-09-04T07:49:23.007Z,99530.84
2022-09-04T07:52:07.938Z,99528.03
2022-09-04T07:55:04.979Z,99522.88
2022-09-04T07:57:53.272Z,99535.34
2022-09-04T08:00:23.287Z,99534.63
2022-09-04T08:03:21.084Z,99532.06
2022-09-04T08:06:16.118Z,99535.47
2022-09-04T08:08:53.379Z,99548.16
2022-09-04T08:11:32.037Z,99547.13
2022-09-04T08:14:26.998Z,99549.50
2022-09-04T08:17:20.836Z,99553.38
2022-09-04T08:19:54.192Z,99551.81
2022-09-04T08:22:48.262Z,99549.00
2022-09-04T08:25:51.213Z,99557.56
2022-09-04T08:28:35.342Z,99554.91
2022-09-04T08:31:20.797Z,99556.75
2022-09-04T08:34:19.890Z,99565.91
2022-09-04T08:36:59.595Z,99563.34
2022-09-04T08:40:18.466Z,99566.69
2022-09-04T08:43:20.461Z,99567.75
2022-09-04T08:46:05.595Z,99563.09
2022-09-04T08:49:11.735Z,99563.94
2022-09-04T08:52:01.052Z,99560.38
2022-09-04T08:54:41.541Z,99562.94
2022-09-04T08:57:12.395Z,99561.78
2022-09-04T09:00:27.558Z,99563.63
2022-09-04T09:03:35.589Z,99567.97
2022-09-04T09:06:24.837Z,99571.44
2022-09-04T09:09:13.018Z,99568.84
2022-09-04T09:11:52.343Z,99574.69
2022-09-04T09:14:41.946Z,99570.09
2022-09-04T09:17:28.018Z,99563.00
2022-09-04T09:20:20.071Z,99564.69
2022-09-04T09:23:21.598Z,99567.53
2022-09-04T09:26:11.136Z,99566.28
2022-09-04T09:29:08.908Z,99566.53
2022-09-04T09:32:24.078Z,99565.56
2022-09-04T09:35:02.863Z,99570.88
2022-09-04T09:38:05.039Z,99574.63
2022-09-04T09:41:09.506Z,99572.16
2022-09-04T09:44:03.592Z,99575.53
2022-09-04T09:46:59.355Z,99568.84
2022-09-04T09:50:00.346Z,99571.38
2022-09-04T09:52:44.752Z,99569.19
2022-09-04T09:55:32.895Z,99569.47
2022-09-04T09:58:02.430Z,99567.38
2022-09-04T10:01:14.423Z,99563.72
2022-09-04T10:04:10.652Z,99570.09
2022-09-04T10:07:02.266Z,99569.34
2022-09-04T10:09:56.934Z,99561.03
2022-09-04T10:12:32.581Z,99555.75
2022-09-04T10:15:21.126Z,99558.19
2022-09-04T10:17:47.585Z,99559.44
2022-09-04T10:20:46.186Z,99560.34
2022-09-04T10:23:37.012Z,99555.50
2022-09-04T10:26:15.854Z,99554.03
2022-09-04T10:28:59.531Z,99556.03
2022-09-04T10:31:35.263Z,99552.84
2022-09-04T10:34:14.341Z,99558.75
2022-09-04T10:36:57.997Z,99562.88
2022-09-04T10:39:51.832Z,99556.94
2022-09-04T10:42:26.446Z,99553.81
2022-09-04T10:45:22.575Z,99561.94
2022-09-04T10:48:28.463Z,99561.72
2022-09-04T10:51:34.645Z,99569.53
2022-09-04T10:54:07.802Z,99561.22
2022-09-04T10:56:53.754Z,99560.97
2022-09-04T10:59:44.973Z,99558.88
2022-09-04T11:02:33.256Z,99571.94
2022-09-04T11:05:08.841Z,99567.88
2022-09-04T11:08:04.380Z,99579.69
2022-09-04T11:11:04.404Z,99571.38
2022-09-04T11:13:59.490Z,99568.56
2022-09-04T11:16:47.913Z,99565.34
2022-09-04T11:19:48.428Z,99564.66
2022-09-04T11:22:45.924Z,99566.34
2022-09-04T11:25:50.330Z,99580.22
2022-09-04T11:28:46.696Z,99584.94
2022-09-04T11:31:25.517Z,99584.06
2022-09-04T11:34:15.542Z,99581.78
2022-09-04T11:37:18.313Z,99572.16
2022-09-04T11:39:53.839Z,99571.97
2022-09-04T11:42:27.640Z,99574.19
2022-09-04T11:45:06.175Z,99571.03
2022-09-04T11:47:44.413Z,99574.41
2022-09-04T11:50:56.375Z,99575.75
2022-09-04T11:53:35.019Z,99580.84
2022-09-04T11:56:25.969Z,99579.78
2022-09-04T11:59:11.280Z,99587.03
2022-09-04T12:01:59.637Z,99583.78
2022-09-04T12:05:10.351Z,99587.78
2022-09-04T12:08:21.238Z,99595.16
2022-09-04T12:10:52.463Z,99593.81
2022-09-04T12:13:41.131Z,99589.16
2022-09-04T12:16:21.690Z,99585.84
2022-09-04T12:19:10.697Z,99589.13
2022-09-04T12:22:07.244Z,99585.63
2022-09-04T12:24:50.156Z,99581.78
2022-09-04T12:27:54.376Z,99584.03
2022-09-04T12:30:40.116Z,99581.78
2022-09-04T12:33:44.257Z,99588.22
2022-09-04T12:36:11.106Z,99589.69
2022-09-04T12:38:49.768Z,99591.50
2022-09-04T12:41:19.949Z,99581.53
2022-09-04T12:43:46.270Z,99585.94
2022-09-04T12:46:38.447Z,99584.16
2022-09-04T12:49:10.918Z,99587.16
2022-09-04T12:51:48.242Z,99586.94
2022-09-04T12:54:38.712Z,99586.63
2022-09-04T12:57:27.466Z,99586.47
2022-09-04T13:00:08.230Z,99578.09
2022-09-04T13:03:11.206Z,99582.69
2022-09-04T13:06:09.944Z,99590.13
2022-09-04T13:08:48.561Z,99592.56
2022-09-04T13:11:30.782Z,99587.81
2022-09-04T13:14:09.147Z,99588.41
2022-09-04T13:17:14.113Z,99580.91
2022-09-04T13:19:55.477Z,99587.34
2022-09-04T13:22:28.441Z,99580.25
2022-09-04T13:25:07.033Z,99579.53
2022-09-04T13:27:49.676Z,99580.28
2022-09-04T13:30:22.171Z,99590.00
2022-09-04T13:33:15.487Z,99588.19
2022-09-04T13:35:57.003Z,99592.22
2022-09-04T13:38:26.588Z,99592.63
2022-09-04T13:41:10.825Z,99594.09
2022-09-04T13:43:50.968Z,99588.25
2022-09-04T13:46:24.657Z,99589.19
2022-09-04T13:48:56.371Z,99589.22
2022-09-04T13:51:29.806Z,99582.50
2022-09-04T13:54:15.036Z,99580.84
2022-09-04T13:57:28.024Z,99578.06
2022-09-04T13:59:59.254Z,99591.38
2022-09-04T14:02:28.096Z,99585.84
2022-09-04T14:05:01.079Z,99582.94
2022-09-04T14:07:33.950Z,99585.88
2022-09-04T14:10:06.331Z,99587.69
2022-09-04T14:12:48.684Z,99589.19
2022-09-04T14:15:33.056Z,99591.50
2022-09-04T14:18:27.926Z,99599.66
2022-09-04T14:21:00.941Z,99591.84
2022-09-04T14:23:36.894Z,99588.34
2022-09-04T14:26:21.609Z,99593.16
2022-09-04T14:29:25.530Z,99580.03
2022-09-04T14:32:26.232Z,99587.31
2022-09-04T14:35:10.375Z,99586.22
2022-09-04T14:37:55.558Z,99588.03
2022-09-04T14:40:30.476Z,99589.91
2022-09-04T14:43:07.070Z,99590.88
2022-09-04T14:45:51.894Z,99596.72
2022-09-04T14:48:24.118Z,99593.69
2022-09-04T14:50:59.971Z,99588.41
2022-09-04T14:53:33.752Z,99601.38
2022-09-04T14:56:29.541Z,99599.47
2022-09-04T14:59:05.404Z,99604.38
2022-09-04T15:01:32.680Z,99602.81
2022-09-04T15:04:08.239Z,99601.63
2022-09-04T15:06:55.026Z,99610.25
2022-09-04T15:09:38.210Z,99611.22
2022-09-04T15:12:25.251Z,99612.41
2022-09-04T15:15:06.001Z,99622.03
2022-09-04T15:17:34.955Z,99613.03
2022-09-04T15:20:22.471Z,99622.69
2022-09-04T15:23:05.886Z,99621.63
2022-09-04T15:25:57.647Z,99620.56
2022-09-04T15:28:38.423Z,99621.88
2022-09-04T15:31:29.356Z,99608.97
2022-09-04T15:34:07.738Z,99613.00
2022-09-04T15:36:37.856Z,99613.88
2022-09-04T15:39:08.617Z,99612.13
2022-09-04T15:41:38.285Z,99616.03
2022-09-04T15:44:30.175Z,99618.78
2022-09-04T15:47:02.980Z,99617.84
2022-09-04T15:49:38.330Z,99623.88
2022-09-04T15:52:24.334Z,99618.06
2022-09-04T15:55:05.120Z,99624.56
2022-09-04T15:58:08.533Z,99626.31
2022-09-04T16:00:39.245Z,99625.63
2022-09-04T16:03:19.348Z,99629.69
2022-09-04T16:05:55.682Z,99627.72
2022-09-04T16:08:42.749Z,99630.31
2022-09-04T16:11:21.832Z,99631.91
2022-09-04T16:13:50.961Z,99631.03
2022-09-04T16:16:28.618Z,99641.97
2022-09-04T16:19:14.256Z,99645.00
2022-09-04T16:21:49.825Z,99648.19
2022-09-04T16:24:29.643Z,99644.94
2022-09-04T16:26:56.739Z,99646.78
2022-09-04T16:29:37.932Z,99654.47
2022-09-04T16:32:09.855Z,99654.06
2022-09-04T16:34:51.698Z,99650.50
2022-09-04T16:37:31.293Z,99650.22
2022-09-04T16:40:05.738Z,99656.66
2022-09-04T16:42:50.062Z,99649.25
2022-09-04T16:45:25.499Z,99657.78
2022-09-04T16:47:59.202Z,99644.91
2022-09-04T16:50:51.761Z,99650.56
2022-09-04T16:53:43.512Z,99657.59
2022-09-04T16:56:20.872Z,99653.56
2022-09-04T16:58:55.197Z,99657.84
2022-09-04T17:01:38.673Z,99664.34
2022-09-04T17:04:24.009Z,99666.97
2022-09-04T17:07:03.082Z,99669.16
2022-09-04T17:09:45.211Z,99665.81
2022-09-04T17:12:54.090Z,99660.63
2022-09-04T17:15:28.573Z,99659.41
2022-09-04T17:17:56.305Z,99668.88
2022-09-04T17:22:57.693Z,99673.75
2022-09-04T17:29:00.322Z,99665.31
2022-09-04T17:29:12.275Z,99666.59
2022-09-04T17:29:48.138Z,99674.28
2022-09-04T17:34:32.810Z,99673.44
2022-09-04T17:40:36.000Z,99679.56
2022-09-04T17:40:48.846Z,99677.91
2022-09-04T17:42:10.071Z,99690.16
2022-09-04T17:45:03.315Z,99692.69
2022-09-04T17:47:38.131Z,99695.00
2022-09-04T17:50:11.330Z,99698.09
2022-09-04T17:52:57.821Z,99692.59
2022-09-04T17:55:25.686Z,99705.41
2022-09-04T17:58:10.698Z,99704.13
2022-09-04T18:01:14.945Z,99706.00
2022-09-04T18:04:20.357Z,99711.63
2022-09-04T18:06:55.350Z,99710.53
2022-09-04T18:09:47.665Z,99708.56
2022-09-04T18:12:31.401Z,99722.31
2022-09-04T18:15:34.696Z,99713.88
2022-09-04T18:18:15.979Z,99717.66
2022-09-04T18:20:56.177Z,99720.94
2022-09-04T18:23:52.024Z,99722.22
2022-09-04T18:26:40.786Z,99728.03
2022-09-04T18:30:02.078Z,99727.13
2022-09-04T18:37:23.609Z,99739.38
2022-09-04T18:37:25.652Z,99740.63
2022-09-04T18:38:41.548Z,99743.34
2022-09-04T18:44:30.574Z,99747.63
2022-09-04T18:50:22.759Z,99745.53
2022-09-04T18:50:45.118Z,99748.41
2022-09-04T18:50:50.302Z,99754.53
2022-09-04T18:53:06.738Z,99751.81
2022-09-04T18:55:54.340Z,99757.19
2022-09-04T18:58:39.179Z,99754.69
2022-09-04T19:01:27.398Z,99756.06
2022-09-04T19:04:19.326Z,99751.09
2022-09-04T19:07:11.431Z,99751.38
2022-09-04T19:10:25.602Z,99755.38
2022-09-04T19:12:55.895Z,99760.78
2022-09-04T19:15:22.342Z,99762.31
2022-09-04T19:18:18.513Z,99760.69
2022-09-04T19:20:50.401Z,99761.06
2022-09-04T19:23:42.350Z,99769.38
2022-09-04T19:26:18.621Z,99767.34
2022-09-04T19:28:54.000Z,99772.09
2022-09-04T19:31:33.997Z,99763.53
2022-09-04T19:34:15.123Z,99771.56
2022-09-04T19:36:53.589Z,99770.94
2022-09-04T19:42:42.223Z,99772.72
2022-09-04T19:45:53.568Z,99772.63
2022-09-04T19:46:28.142Z,99777.31
2022-09-04T19:51:50.943Z,99785.03
2022-09-04T19:53:31.033Z,99785.66
2022-09-04T19:55:24.967Z,99782.75
2022-09-04T19:58:39.361Z,99786.59
2022-09-04T20:01:15.972Z,99786.97
2022-09-04T20:03:54.875Z,99786.03
2022-09-04T20:06:46.280Z,99792.03
2022-09-04T20:09:21.502Z,99790.06
2022-09-04T20:11:56.490Z,99793.28
2022-09-04T20:14:34.373Z,99797.75
2022-09-04T20:17:11.424Z,99797.94
2022-09-04T20:19:51.216Z,99796.91
2022-09-04T20:22:45.286Z,99799.06
2022-09-04T20:26:08.804Z,99792.09
2022-09-04T20:28:49.612Z,99799.22
2022-09-04T20:31:35.401Z,99802.88
2022-09-04T20:34:28.984Z,99800.88
2022-09-04T20:37:22.505Z,99798.34
2022-09-04T20:39:54.580Z,99808.63
2022-09-04T20:43:02.637Z,99805.25
2022-09-04T20:52:02.858Z,99807.91
2022-09-04T20:52:50.301Z,99811.16
2022-09-04T20:52:57.194Z,99811.81
2022-09-04T20:54:28.471Z,99808.69
2022-09-04T20:59:32.164Z,99806.38
2022-09-04T21:03:20.864Z,99812.13
2022-09-04T21:03:21.230Z,99811.69
2022-09-04T21:05:50.866Z,99820.97
2022-09-04T21:08:38.088Z,99814.72
2022-09-04T21:11:38.757Z,99825.16
2022-09-04T21:14:05.084Z,99823.63
2022-09-04T21:17:02.042Z,99823.19
2022-09-04T21:20:07.266Z,99827.34
2022-09-04T21:23:05.477Z,99830.59
2022-09-04T21:25:58.594Z,99824.22
2022-09-04T21:28:40.198Z,99824.78
2022-09-04T21:31:44.354Z,99831.53
2022-09-04T21:34:37.622Z,99826.50
2022-09-04T21:37:18.283Z,99826.03
2022-09-04T21:39:59.940Z,99834.22
2022-09-04T21:42:48.466Z,99828.22
2022-09-04T21:45:41.534Z,99830.63
2022-09-04T21:48:17.796Z,99835.09
2022-09-04T21:50:50.845Z,99838.97
2022-09-04T21:53:47.084Z,99829.44
2022-09-04T22:01:39.578Z,99834.69
2022-09-04T22:02:42.952Z,99830.81
2022-09-04T22:03:02.054Z,99842.00
2022-09-04T22:05:47.377Z,99841.34
2022-09-04T22:13:30.098Z,99843.91
2022-09-04T22:13:35.301Z,99836.25
2022-09-04T22:14:39.489Z,99842.38
2022-09-04T22:17:35.139Z,99842.69
2022-09-04T22:20:19.878Z,99845.09
2022-09-04T22:22:58.566Z,99842.00
2022-09-04T22:25:45.595Z,99840.50
2022-09-04T22:28:43.233Z,99838.28
2022-09-04T22:31:29.229Z,99838.97
2022-09-04T22:34:27.488Z,99834.38
2022-09-04T22:37:32.067Z,99843.56
2022-09-04T22:40:14.134Z,99836.09
2022-09-04T22:43:14.960Z,99840.69
2022-09-04T22:45:52.294Z,99839.66
2022-09-04T22:48:37.195Z,99837.44
2022-09-04T22:51:11.189Z,99840.00
2022-09-04T22:53:56.129Z,99836.47
2022-09-04T22:56:34.215Z,99834.66
2022-09-04T22:59:26.483Z,99835.34
2022-09-04T23:01:57.027Z,99831.09
2022-09-04T23:04:46.635Z,99825.19
2022-09-04T23:12:53.401Z,99828.22
2022-09-04T23:13:50.840Z,99831.13
2022-09-04T23:13:58.375Z,99835.34
2022-09-04T23:17:27.249Z,99827.03
2022-09-04T23:24:22.555Z,99828.72
2022-09-04T23:26:42.362Z,99833.34
2022-09-04T23:26:42.695Z,99834.66
2022-09-04T23:29:44.558Z,99829.91
2022-09-04T23:32:39.863Z,99836.19
2022-09-04T23:35:21.621Z,99833.66
2022-09-04T23:38:06.481Z,99830.09
2022-09-04T23:40:57.729Z,99831.09
2022-09-04T23:43:42.318Z,99832.78
2022-09-04T23:46:30.543Z,99829.03
2022-09-04T23:49:36.033Z,99837.88
2022-09-04T23:52:47.712Z,99832.25
2022-09-04T23:55:27.975Z,99837.50
2022-09-04T23:59:02.782Z,99837.19
